createdAt,value
2023-01-31T00:03:58.499Z,1018.5
2023-01-31T00:08:55.870Z,1018.5
2023-01-31T00:14:12.276Z,1018.6
2023-01-31T00:19:18.642Z,1018.5
2023-01-31T00:24:25.134Z,1018.6
2023-01-31T00:29:31.628Z,1018.5
2023-01-31T00:34:38.248Z,1018.3
2023-01-31T00:39:45.953Z,1018.3
2023-01-31T00:44:52.358Z,1018.3
2023-01-31T00:49:58.891Z,1018.3
2023-01-31T00:55:05.293Z,1018.4
2023-01-31T01:00:11.709Z,1018.4
2023-01-31T01:05:18.555Z,1018.3
2023-01-31T01:10:24.545Z,1018.4
2023-01-31T01:15:30.937Z,1018.3
2023-01-31T01:20:37.312Z,1018.3
2023-01-31T01:25:43.802Z,1018.3
2023-01-31T01:31:18.028Z,1018.4
2023-01-31T01:36:00.148Z,1018.3
2023-01-31T01:40:56.511Z,1018.3
2023-01-31T01:46:12.962Z,1018.3
2023-01-31T01:51:20.934Z,1018.4
2023-01-31T01:56:27.371Z,1018.5
2023-01-31T02:02:08.877Z,1018.5
2023-01-31T02:07:16.335Z,1018.6
2023-01-31T02:12:24.267Z,1018.7
2023-01-31T02:17:30.629Z,1018.8
2023-01-31T02:22:40.607Z,1018.9
2023-01-31T02:27:47.090Z,1018.8
2023-01-31T02:32:53.567Z,1018.7
2023-01-31T02:37:59.982Z,1018.5
2023-01-31T02:43:06.366Z,1018.5
2023-01-31T02:48:12.746Z,1018.5
2023-01-31T02:53:19.167Z,1018.5
2023-01-31T02:58:14.507Z,1018.4
2023-01-31T03:03:31.973Z,1018.3
2023-01-31T03:08:38.545Z,1018.3
2023-01-31T03:13:45.049Z,1018.2
2023-01-31T03:18:51.418Z,1018.1
2023-01-31T03:23:57.813Z,1018.1
2023-01-31T03:29:04.188Z,1018.0
2023-01-31T03:34:10.537Z,1018.1
2023-01-31T03:39:17.655Z,1018.0
2023-01-31T03:44:23.375Z,1017.9
2023-01-31T03:49:29.829Z,1017.7
2023-01-31T03:54:36.225Z,1017.9
2023-01-31T03:59:32.598Z,1017.7
2023-01-31T04:04:48.955Z,1017.6
2023-01-31T04:09:55.358Z,1017.7
2023-01-31T04:15:01.722Z,1017.7
2023-01-31T04:20:08.193Z,1017.7
2023-01-31T04:25:04.593Z,1017.7
2023-01-31T04:30:21.031Z,1017.6
2023-01-31T04:35:16.343Z,1017.6
2023-01-31T04:41:18.856Z,1017.5
2023-01-31T04:46:16.219Z,1017.4
2023-01-31T04:51:33.013Z,1017.3
2023-01-31T04:56:39.097Z,1017.1
2023-01-31T05:01:45.558Z,1017.0
2023-01-31T05:06:52.056Z,1016.9
2023-01-31T05:12:43.173Z,1016.8
2023-01-31T05:17:05.785Z,1016.7
2023-01-31T05:22:11.840Z,1016.8
2023-01-31T05:27:18.225Z,1016.8
2023-01-31T05:32:24.630Z,1016.7
2023-01-31T05:37:55.038Z,1016.6
2023-01-31T05:42:37.341Z,1016.4
2023-01-31T05:47:43.753Z,1016.4
2023-01-31T05:52:50.123Z,1016.3
2023-01-31T05:57:56.502Z,1016.6
2023-01-31T06:03:03.199Z,1016.5
2023-01-31T06:08:09.490Z,1016.6
2023-01-31T06:13:59.973Z,1016.6
2023-01-31T06:18:22.311Z,1016.5
2023-01-31T06:23:28.665Z,1016.5
2023-01-31T06:28:35.060Z,1016.6
2023-01-31T06:33:47.397Z,1016.5
2023-01-31T06:39:08.449Z,1016.5
2023-01-31T06:44:15.828Z,1016.4
2023-01-31T06:49:02.179Z,1016.3
2023-01-31T06:54:49.643Z,1016.2
2023-01-31T06:59:57.051Z,1016.1
2023-01-31T07:05:03.596Z,1016.2
2023-01-31T07:10:09.841Z,1016.1
2023-01-31T07:15:06.378Z,1016.0
2023-01-31T07:20:22.954Z,1016.0
2023-01-31T07:25:30.103Z,1016.0
2023-01-31T07:30:39.895Z,1016.0
2023-01-31T07:35:42.272Z,1015.9
2023-01-31T07:40:49.295Z,1015.8
2023-01-31T07:46:19.117Z,1015.8
2023-01-31T07:51:29.027Z,1015.8
2023-01-31T07:56:11.373Z,1015.8
2023-01-31T08:01:07.802Z,1015.7
2023-01-31T08:06:24.129Z,1015.5
2023-01-31T08:11:31.899Z,1015.5
2023-01-31T08:16:38.062Z,1015.4
2023-01-31T08:21:44.865Z,1015.4
2023-01-31T08:26:50.906Z,1015.2
2023-01-31T08:31:57.396Z,1015.2
2023-01-31T08:37:27.671Z,1015.1
2023-01-31T08:42:10.031Z,1014.8
2023-01-31T08:47:16.455Z,1014.9
2023-01-31T08:52:12.813Z,1014.8
2023-01-31T08:57:19.222Z,1015.0
2023-01-31T09:02:25.597Z,1014.9
2023-01-31T09:07:41.969Z,1014.8
2023-01-31T09:13:12.429Z,1014.7
2023-01-31T09:17:54.721Z,1014.7
2023-01-31T09:23:01.264Z,1014.7
2023-01-31T09:28:07.643Z,1014.6
2023-01-31T09:33:14.153Z,1014.7
2023-01-31T09:38:20.516Z,1014.7
2023-01-31T09:43:46.977Z,1014.6
2023-01-31T09:48:33.340Z,1014.6
2023-01-31T09:53:39.696Z,1014.8
2023-01-31T09:58:46.096Z,1014.8
2023-01-31T10:03:52.534Z,1014.7
2023-01-31T10:08:58.864Z,1014.6
2023-01-31T10:14:05.260Z,1014.6
2023-01-31T10:19:11.650Z,1014.5
2023-01-31T10:24:18.078Z,1014.6
2023-01-31T10:29:24.563Z,1014.3
2023-01-31T10:34:31.364Z,1014.2
2023-01-31T10:39:37.350Z,1014.2
2023-01-31T10:44:43.723Z,1014.1
2023-01-31T10:49:50.175Z,1014.2
2023-01-31T10:54:57.088Z,1014.3
2023-01-31T11:00:26.535Z,1014.0
2023-01-31T11:05:08.950Z,1014.0
2023-01-31T11:10:16.548Z,1014.0
2023-01-31T11:15:22.932Z,1013.8
2023-01-31T11:20:29.335Z,1013.8
2023-01-31T11:25:35.696Z,1013.8
2023-01-31T11:30:45.670Z,1013.7
2023-01-31T11:35:52.087Z,1013.8
2023-01-31T11:40:58.387Z,1013.7
2023-01-31T11:46:04.785Z,1013.6
2023-01-31T11:51:11.169Z,1013.6
2023-01-31T11:56:17.523Z,1013.3
2023-01-31T12:01:23.978Z,1013.3
2023-01-31T12:06:30.467Z,1013.3
2023-01-31T12:11:36.831Z,1013.4
2023-01-31T12:16:43.322Z,1013.4
2023-01-31T12:21:49.632Z,1013.1
2023-01-31T12:26:56.046Z,1013.2
2023-01-31T12:32:26.422Z,1013.3
2023-01-31T12:37:32.829Z,1013.3
2023-01-31T12:42:35.178Z,1013.3
2023-01-31T12:47:21.547Z,1013.3
2023-01-31T12:52:28.036Z,1013.3
2023-01-31T12:57:54.482Z,1013.3
2023-01-31T13:02:40.885Z,1013.4
2023-01-31T13:09:59.307Z,1013.3
2023-01-31T13:13:13.577Z,1013.2
2023-01-31T13:18:23.928Z,1013.0
2023-01-31T13:23:50.375Z,1012.9
2023-01-31T13:28:36.756Z,1012.9
2023-01-31T13:33:19.079Z,1012.8
2023-01-31T13:38:15.442Z,1013.0
2023-01-31T13:43:31.828Z,1013.0
2023-01-31T13:48:38.232Z,1012.9
2023-01-31T13:54:08.631Z,1012.9
2023-01-31T13:58:50.959Z,1013.0
2023-01-31T14:03:57.367Z,1013.0
2023-01-31T14:09:03.711Z,1013.0
2023-01-31T14:14:10.188Z,1012.9
2023-01-31T14:19:16.580Z,1012.9
2023-01-31T14:24:22.951Z,1012.8
2023-01-31T14:29:29.338Z,1012.9
2023-01-31T14:34:55.771Z,1012.9
2023-01-31T14:40:44.418Z,1013.1
2023-01-31T14:44:48.580Z,1013.1
2023-01-31T14:49:54.969Z,1013.0
2023-01-31T14:55:01.490Z,1013.1
2023-01-31T15:00:31.987Z,1013.3
2023-01-31T15:05:34.478Z,1013.3
2023-01-31T15:10:10.846Z,1013.2
2023-01-31T15:15:27.225Z,1013.2
2023-01-31T15:20:33.599Z,1013.1
2023-01-31T15:26:04.070Z,1013.2
2023-01-31T15:30:46.444Z,1013.3
2023-01-31T15:35:52.738Z,1013.4
2023-01-31T15:40:59.257Z,1013.4
2023-01-31T15:46:05.815Z,1013.3
2023-01-31T15:51:12.127Z,1013.4
2023-01-31T15:56:08.484Z,1013.5
2023-01-31T16:01:24.955Z,1013.4
2023-01-31T16:06:31.255Z,1013.5
2023-01-31T16:12:01.646Z,1013.5
2023-01-31T16:16:44.077Z,1013.6
2023-01-31T16:21:50.431Z,1013.6
2023-01-31T16:26:56.830Z,1013.6
2023-01-31T16:32:03.228Z,1013.7
2023-01-31T16:37:08.599Z,1013.9
2023-01-31T16:42:15.969Z,1013.8
2023-01-31T16:47:22.486Z,1013.8
2023-01-31T16:52:28.958Z,1013.8
2023-01-31T16:57:37.597Z,1013.9
2023-01-31T17:02:55.915Z,1014.0
2023-01-31T17:07:38.179Z,1014.1
2023-01-31T17:12:54.670Z,1014.1
2023-01-31T17:18:01.205Z,1014.2
2023-01-31T17:23:07.851Z,1014.1
2023-01-31T17:28:14.272Z,1014.2
2023-01-31T17:33:20.674Z,1014.2
2023-01-31T17:38:27.025Z,1014.2
2023-01-31T17:43:33.399Z,1014.2
2023-01-31T17:48:29.831Z,1014.1
2023-01-31T17:53:49.939Z,1014.1
2023-01-31T17:58:52.788Z,1014.2
2023-01-31T18:03:59.225Z,1014.3
2023-01-31T18:23:22.517Z,1014.1
2023-01-31T18:28:29.893Z,1014.2
2023-01-31T18:33:56.326Z,1014.4
2023-01-31T18:39:06.721Z,1014.2
2023-01-31T18:44:13.146Z,1014.3
2023-01-31T18:48:55.469Z,1014.2
2023-01-31T18:54:01.902Z,1014.3
2023-01-31T18:59:52.423Z,1014.3
2023-01-31T19:04:16.234Z,1014.3
2023-01-31T19:09:22.657Z,1014.3
2023-01-31T19:14:29.067Z,1014.3
2023-01-31T19:20:00.566Z,1014.4
2023-01-31T19:25:06.946Z,1014.3
2023-01-31T19:30:33.658Z,1014.4
2023-01-31T19:35:20.511Z,1014.3
2023-01-31T19:40:46.687Z,1014.3
2023-01-31T19:45:33.075Z,1014.4
2023-01-31T19:50:15.356Z,1014.4
2023-01-31T19:55:22.132Z,1014.4
2023-01-31T20:00:28.257Z,1014.3
2023-01-31T20:10:40.017Z,1014.4
2023-01-31T20:11:54.127Z,1014.5
2023-01-31T20:15:48.456Z,1014.4
2023-01-31T20:21:14.964Z,1014.4
2023-01-31T20:26:21.444Z,1014.4
2023-01-31T20:31:51.835Z,1014.3
2023-01-31T20:36:14.079Z,1014.5
2023-01-31T20:42:04.584Z,1014.5
2023-01-31T20:46:51.494Z,1014.5
2023-01-31T20:51:53.901Z,1014.4
2023-01-31T20:56:40.266Z,1014.4
2023-01-31T21:01:46.832Z,1014.3
2023-01-31T21:06:53.131Z,1014.4
2023-01-31T21:11:59.439Z,1014.4
2023-01-31T21:17:05.816Z,1014.5
2023-01-31T21:22:12.178Z,1014.4
2023-01-31T21:27:18.639Z,1014.4
2023-01-31T21:32:24.953Z,1014.4
2023-01-31T21:38:55.573Z,1014.5
2023-01-31T21:45:26.117Z,1014.4
2023-01-31T21:48:28.284Z,1014.3
2023-01-31T21:53:10.587Z,1014.4
2023-01-31T22:03:02.405Z,1014.4
2023-01-31T22:08:29.829Z,1014.2
2023-01-31T22:13:16.114Z,1014.4
2023-01-31T22:18:22.590Z,1014.1
2023-01-31T22:24:13.198Z,1014.1
2023-01-31T22:28:36.610Z,1014.1
2023-01-31T22:33:42.983Z,1014.2
2023-01-31T22:38:49.374Z,1014.2
2023-01-31T22:43:55.785Z,1014.1
2023-01-31T22:49:02.209Z,1014.0
2023-01-31T22:54:08.587Z,1014.0
2023-01-31T22:59:04.995Z,1013.8
2023-01-31T23:50:24.383Z,1013.7
2023-01-31T23:55:31.517Z,1013.6
